createdAt,value
2022-11-17T00:04:28.951Z,97667.47
2022-11-17T00:10:30.834Z,97656.38
2022-11-17T00:16:32.749Z,97649.78
2022-11-17T00:22:34.637Z,97641.84
2022-11-17T00:28:36.520Z,97643.59
2022-11-17T00:34:38.430Z,97632.38
2022-11-17T00:40:40.309Z,97626.78
2022-11-17T00:46:43.113Z,97608.94
2022-11-17T00:52:45.051Z,97604.66
2022-11-17T00:58:46.967Z,97581.00
2022-11-17T01:04:48.886Z,97591.38
2022-11-17T01:10:50.799Z,97579.75
2022-11-17T01:16:53.688Z,97578.84
2022-11-17T01:22:55.733Z,97571.09
2022-11-17T01:28:59.721Z,97566.91
2022-11-17T01:35:01.663Z,97558.72
2022-11-17T01:41:06.764Z,97555.81
2022-11-17T01:47:41.771Z,97526.50
2022-11-17T01:53:45.333Z,97517.97
2022-11-17T01:59:54.305Z,97509.31
2022-11-17T02:06:02.126Z,97497.84
2022-11-17T02:12:06.194Z,97500.28
2022-11-17T02:18:08.168Z,97497.19
2022-11-17T02:24:42.525Z,97486.97
2022-11-17T02:31:46.336Z,97479.28
2022-11-17T02:38:09.160Z,97462.81
2022-11-17T02:44:28.657Z,97447.06
2022-11-17T02:50:33.872Z,97431.16
2022-11-17T02:56:42.192Z,97414.44
2022-11-17T03:03:18.956Z,97415.69
2022-11-17T03:09:58.354Z,97408.22
2022-11-17T03:16:33.545Z,97406.44
2022-11-17T03:22:56.360Z,97413.19
2022-11-17T03:29:00.226Z,97395.38
2022-11-17T03:35:09.903Z,97404.59
2022-11-17T03:41:14.863Z,97385.94
2022-11-17T03:47:20.898Z,97382.03
2022-11-17T03:53:24.219Z,97383.19
2022-11-17T04:00:04.384Z,97359.44
2022-11-17T04:06:06.604Z,97359.91
2022-11-17T04:12:27.678Z,97351.84
2022-11-17T04:18:29.572Z,97352.53
2022-11-17T04:24:31.452Z,97344.53
2022-11-17T04:30:33.334Z,97327.47
2022-11-17T04:36:43.300Z,97320.19
2022-11-17T04:42:45.190Z,97303.47
2022-11-17T04:48:47.825Z,97309.47
2022-11-17T04:54:49.698Z,97304.34
2022-11-17T05:00:51.622Z,97296.38
2022-11-17T05:06:53.582Z,97302.16
2022-11-17T05:13:14.011Z,97302.72
2022-11-17T05:19:22.916Z,97295.31
2022-11-17T05:25:24.861Z,97294.56
2022-11-17T05:31:27.991Z,97283.34
2022-11-17T05:37:29.911Z,97285.47
2022-11-17T05:43:32.231Z,97282.47
2022-11-17T05:49:34.256Z,97285.34
2022-11-17T05:55:36.323Z,97271.69
2022-11-17T06:01:46.929Z,97262.31
2022-11-17T06:07:49.547Z,97268.28
2022-11-17T06:13:51.513Z,97265.25
2022-11-17T06:20:02.854Z,97270.97
2022-11-17T06:26:09.133Z,97274.59
2022-11-17T06:32:13.064Z,97280.91
2022-11-17T06:38:15.072Z,97267.72
2022-11-17T06:44:16.957Z,97271.56
2022-11-17T06:50:19.118Z,97264.81
2022-11-17T06:56:21.023Z,97266.75
2022-11-17T07:02:22.949Z,97263.59
2022-11-17T07:08:24.948Z,97249.44
2022-11-17T07:14:26.846Z,97237.72
2022-11-17T07:20:28.788Z,97213.38
2022-11-17T07:26:30.759Z,97200.81
2022-11-17T07:32:36.278Z,97204.72
2022-11-17T07:38:40.541Z,97198.28
2022-11-17T07:44:42.674Z,97188.09
2022-11-17T07:50:44.626Z,97171.44
2022-11-17T07:56:46.568Z,97184.75
2022-11-17T08:02:48.457Z,97174.84
2022-11-17T08:08:50.576Z,97182.91
2022-11-17T08:14:52.443Z,97189.75
2022-11-17T08:21:13.765Z,97186.19
2022-11-17T08:27:15.781Z,97174.47
2022-11-17T08:33:17.918Z,97172.41
2022-11-17T08:39:19.829Z,97181.81
2022-11-17T08:45:21.844Z,97177.06
2022-11-17T08:51:24.931Z,97182.88
2022-11-17T08:57:28.896Z,97176.59
2022-11-17T09:03:30.806Z,97157.84
2022-11-17T09:09:33.091Z,97166.44
2022-11-17T09:15:35.011Z,97159.72
2022-11-17T09:21:36.973Z,97164.81
2022-11-17T09:27:39.010Z,97157.03
2022-11-17T09:33:41.168Z,97152.63
2022-11-17T09:39:43.142Z,97161.66
2022-11-17T09:45:48.122Z,97158.19
2022-11-17T09:51:50.842Z,97153.22
2022-11-17T09:58:15.398Z,97169.09
2022-11-17T10:04:17.473Z,97195.97
2022-11-17T10:10:49.627Z,97182.38
2022-11-17T10:16:56.044Z,97180.75
2022-11-17T10:22:58.611Z,97175.34
2022-11-17T10:29:11.404Z,97161.09
2022-11-17T10:35:24.626Z,97164.69
2022-11-17T10:41:41.342Z,97162.81
2022-11-17T10:47:43.293Z,97168.28
2022-11-17T10:54:23.154Z,97149.50
2022-11-17T11:00:34.849Z,97132.41
2022-11-17T11:06:36.753Z,97136.09
2022-11-17T11:13:11.663Z,97134.16
2022-11-17T11:19:16.666Z,97138.94
2022-11-17T11:25:41.059Z,97131.84
2022-11-17T11:32:30.461Z,97136.38
2022-11-17T11:39:10.720Z,97134.16
2022-11-17T11:45:21.034Z,97133.00
2022-11-17T11:51:35.044Z,97130.19
2022-11-17T11:57:44.694Z,97134.50
2022-11-17T12:04:27.061Z,97143.81
2022-11-17T12:10:49.427Z,97142.06
2022-11-17T12:17:18.590Z,97132.44
2022-11-17T12:23:37.876Z,97135.59
2022-11-17T12:29:47.285Z,97134.31
2022-11-17T12:36:30.934Z,97140.31
2022-11-17T12:42:35.502Z,97147.03
2022-11-17T12:48:43.573Z,97148.69
2022-11-17T12:55:24.604Z,97156.34
2022-11-17T13:01:48.251Z,97154.25
2022-11-17T13:07:50.466Z,97158.06
2022-11-17T13:14:15.322Z,97149.25
2022-11-17T13:20:27.465Z,97144.28
2022-11-17T13:26:35.980Z,97158.75
2022-11-17T13:32:41.211Z,97161.19
2022-11-17T13:38:51.889Z,97165.34
2022-11-17T13:44:56.531Z,97170.00
2022-11-17T13:51:27.708Z,97166.13
2022-11-17T13:57:30.537Z,97164.38
2022-11-17T14:03:43.688Z,97162.66
2022-11-17T14:09:45.670Z,97175.28
2022-11-17T14:15:57.650Z,97170.56
2022-11-17T14:22:31.371Z,97188.34
2022-11-17T14:28:33.963Z,97179.34
2022-11-17T14:34:35.838Z,97197.16
2022-11-17T14:40:37.705Z,97196.06
2022-11-17T14:46:39.768Z,97191.28
2022-11-17T14:52:43.079Z,97194.56
2022-11-17T14:58:53.985Z,97200.22
2022-11-17T15:04:56.677Z,97213.25
2022-11-17T15:10:58.947Z,97211.97
2022-11-17T15:17:00.839Z,97207.91
2022-11-17T15:23:03.544Z,97220.56
2022-11-17T15:29:06.149Z,97227.53
2022-11-17T15:35:08.544Z,97219.97
2022-11-17T15:41:12.433Z,97219.53
2022-11-17T15:47:14.357Z,97221.72
2022-11-17T15:53:16.297Z,97233.66
2022-11-17T15:59:18.649Z,97240.53
2022-11-17T16:05:20.850Z,97244.59
2022-11-17T16:11:23.310Z,97239.94
2022-11-17T16:17:25.365Z,97243.06
2022-11-17T16:23:27.241Z,97249.44
2022-11-17T16:29:29.151Z,97248.03
2022-11-17T16:35:31.099Z,97268.34
2022-11-17T16:41:36.397Z,97274.25
2022-11-17T16:47:38.314Z,97278.91
2022-11-17T16:53:40.536Z,97291.19
2022-11-17T16:59:42.403Z,97294.22
2022-11-17T17:05:44.297Z,97294.22
2022-11-17T17:11:46.292Z,97294.22
2022-11-17T17:17:49.222Z,97296.19
2022-11-17T17:23:51.535Z,97295.03
2022-11-17T17:29:56.782Z,97291.91
2022-11-17T17:36:14.478Z,97280.56
2022-11-17T17:42:16.384Z,97277.53
2022-11-17T17:48:18.304Z,97287.72
2022-11-17T17:54:23.949Z,97284.13
2022-11-17T18:00:26.185Z,97302.47
2022-11-17T18:06:28.493Z,97308.91
2022-11-17T18:12:30.408Z,97313.72
2022-11-17T18:18:33.703Z,97311.00
2022-11-17T18:24:35.599Z,97305.97
2022-11-17T18:30:37.485Z,97310.97
2022-11-17T18:36:39.540Z,97306.69
2022-11-17T18:42:41.436Z,97314.81
2022-11-17T18:48:46.205Z,97316.59
2022-11-17T18:54:48.093Z,97319.53
2022-11-17T19:00:50.062Z,97315.22
2022-11-17T19:06:52.137Z,97320.81
2022-11-17T19:12:54.093Z,97326.78
2022-11-17T19:18:56.905Z,97324.47
2022-11-17T19:24:58.833Z,97315.03
2022-11-17T19:31:12.617Z,97316.47
2022-11-17T19:37:14.501Z,97316.47
2022-11-17T19:43:19.179Z,97320.53
2022-11-17T19:49:21.135Z,97327.28
2022-11-17T19:55:23.043Z,97330.28
2022-11-17T20:01:27.951Z,97322.47
2022-11-17T20:07:30.100Z,97316.56
2022-11-17T20:13:33.009Z,97329.28
2022-11-17T20:19:34.904Z,97334.22
2022-11-17T20:25:38.250Z,97342.22
2022-11-17T20:31:41.230Z,97353.31
2022-11-17T20:37:43.088Z,97358.22
2022-11-17T20:43:48.937Z,97369.16
2022-11-17T20:49:50.812Z,97364.72
2022-11-17T20:56:00.999Z,97367.81
2022-11-17T21:02:02.894Z,97382.31
2022-11-17T21:08:05.203Z,97389.53
2022-11-17T21:14:10.771Z,97391.09
2022-11-17T21:20:12.662Z,97401.97
2022-11-17T21:26:19.085Z,97413.81
2022-11-17T21:32:20.958Z,97420.47
2022-11-17T21:38:23.058Z,97426.66
2022-11-17T21:44:25.060Z,97425.53
2022-11-17T21:50:27.081Z,97425.78
2022-11-17T21:56:29.414Z,97430.91
2022-11-17T22:02:31.310Z,97430.81
2022-11-17T22:08:37.091Z,97431.72
2022-11-17T22:14:39.003Z,97446.47
2022-11-17T22:20:40.902Z,97434.75
2022-11-17T22:26:44.735Z,97437.81
2022-11-17T22:32:46.605Z,97449.13
2022-11-17T22:38:52.707Z,97446.72
2022-11-17T22:44:54.631Z,97454.25
2022-11-17T22:51:00.239Z,97453.31
2022-11-17T22:57:02.427Z,97450.56
2022-11-17T23:03:04.403Z,97455.16
2022-11-17T23:09:06.420Z,97451.59
2022-11-17T23:15:08.679Z,97469.53
2022-11-17T23:21:11.583Z,97469.28
2022-11-17T23:27:13.471Z,97475.94
2022-11-17T23:33:15.367Z,97480.13
2022-11-17T23:39:17.408Z,97472.47
2022-11-17T23:45:19.547Z,97471.16
2022-11-17T23:51:24.026Z,97484.47
2022-11-17T23:57:25.916Z,97481.94
